Time;durP1;ratioP1;P1;durP2;ratioP2;P2;SDS_P1;SDS_P2;PMS_P1;PMS_P2;Temp;Humidity;BMP_temperature;BMP_pressure;BME280_temperature;BME280_humidity;BME280_pressure;Samples;Min_cycle;Max_cycle;Signal;HPM_P1;HPM_P2
2021/01/20 00:00:50;;;;;;;;;;;;;;;9.77;64.45;100097.25;5066556;27;100038;-82
2021/01/20 00:03:17;;;;;;;;;;;;;;;9.89;63.95;100100.22;5071642;27;100004;-83
2021/01/20 00:05:44;;;;;;;;;;;;;;;10.06;63.66;100090.69;5059389;27;96839;-82
2021/01/20 00:08:10;;;;;;;;;;;;;;;9.53;65.26;100085.94;5056882;27;96685;-82
2021/01/20 00:10:36;;;;;;;;;;;;;;;9.69;64.23;100081.75;5047007;27;101480;-82
2021/01/20 00:13:05;;;;;;;;;;;;;;;9.45;65.39;100090.69;5055373;27;97992;-82
2021/01/20 00:15:33;;;;;;;;;;;;;;;9.29;65.81;100085.16;5058287;27;96829;-82
2021/01/20 00:17:59;;;;;;;;;;;;;;;9.60;64.86;100082.13;5061592;27;96871;-82
2021/01/20 00:20:25;;;;;;;;;;;;;;;9.74;64.49;100106.13;5062395;27;99762;-82
2021/01/20 00:22:54;;;;;;;;;;;;;;;9.59;64.53;100112.91;5058461;27;100766;-82
2021/01/20 00:25:20;;;;;;;;;;;;;;;9.59;64.49;100109.41;5069302;27;96589;-81
2021/01/20 00:27:46;;;;;;;;;;;;;;;9.73;64.10;100109.69;5061736;27;97375;-83
2021/01/20 00:30:14;;;;;;;;;;;;;;;9.87;63.44;100109.97;5064715;27;100287;-81
2021/01/20 00:32:40;;;;;;;;;;;;;;;9.77;63.45;100113.94;5061991;27;96851;-81
2021/01/20 00:35:08;;;;;;;;;;;;;;;10.12;62.71;100117.69;5060763;27;96862;-81
2021/01/20 00:37:33;;;;;;;;;;;;;;;9.88;63.29;100113.47;5064027;27;96891;-80
2021/01/20 00:39:59;;;;;;;;;;;;;;;10.12;62.23;100111.56;5065229;27;101693;-81
2021/01/20 00:42:25;;;;;;;;;;;;;;;9.23;64.64;100121.47;5067683;27;100349;-81
2021/01/20 00:44:51;;;;;;;;;;;;;;;9.77;63.12;100121.00;5047377;27;96850;-82
2021/01/20 00:47:19;;;;;;;;;;;;;;;9.97;63.05;100116.59;5066098;27;96595;-81
2021/01/20 00:49:45;;;;;;;;;;;;;;;9.93;62.74;100122.06;5062291;27;101249;-81
2021/01/20 00:52:10;;;;;;;;;;;;;;;9.99;62.35;100116.50;5063541;27;96695;-82
2021/01/20 00:54:36;;;;;;;;;;;;;;;9.96;62.68;100117.50;5064206;27;96776;-82
2021/01/20 00:57:02;;;;;;;;;;;;;;;9.87;62.92;100120.53;5064331;27;96621;-80
2021/01/20 00:59:28;;;;;;;;;;;;;;;9.79;62.79;100130.53;5066014;27;99520;-82
2021/01/20 01:01:57;;;;;;;;;;;;;;;9.58;63.83;100128.81;5071078;27;100584;-81
2021/01/20 01:04:24;;;;;;;;;;;;;;;9.46;64.25;100129.28;5054775;27;97470;-82
2021/01/20 01:06:50;;;;;;;;;;;;;;;9.70;63.51;100124.81;5056232;27;96696;-82
2021/01/20 01:09:16;;;;;;;;;;;;;;;9.63;63.84;100134.75;5057793;27;97782;-82
2021/01/20 01:11:42;;;;;;;;;;;;;;;9.82;63.51;100125.16;5053114;27;98176;-82
2021/01/20 01:14:08;;;;;;;;;;;;;;;9.86;63.16;100125.88;5071100;27;96647;-81
2021/01/20 01:16:34;;;;;;;;;;;;;;;9.74;63.45;100121.13;5071898;27;96170;-81
2021/01/20 01:19:00;;;;;;;;;;;;;;;9.76;62.95;100121.91;5067551;27;97939;-80
2021/01/20 01:21:27;;;;;;;;;;;;;;;9.56;63.84;100120.97;5074403;27;96728;-81
2021/01/20 01:23:52;;;;;;;;;;;;;;;9.71;63.07;100115.97;5072250;27;97079;-81
2021/01/20 01:26:18;;;;;;;;;;;;;;;9.66;62.84;100116.16;5071551;27;96344;-81
2021/01/20 01:28:44;;;;;;;;;;;;;;;9.51;63.74;100122.09;5074221;27;96841;-82
2021/01/20 01:31:10;;;;;;;;;;;;;;;9.62;63.29;100121.63;5073943;27;97950;-82
2021/01/20 01:33:36;;;;;;;;;;;;;;;9.62;62.84;100116.34;5073345;27;96881;-83
2021/01/20 01:36:02;;;;;;;;;;;;;;;9.48;63.35;100117.78;5062717;27;96789;-83
2021/01/20 01:38:29;;;;;;;;;;;;;;;9.40;63.26;100119.84;5063653;27;96904;-82
2021/01/20 01:40:55;;;;;;;;;;;;;;;9.29;63.80;100118.59;5058265;27;101486;-82
2021/01/20 01:43:23;;;;;;;;;;;;;;;9.60;62.87;100119.03;5057674;27;97188;-83
2021/01/20 01:45:49;;;;;;;;;;;;;;;9.03;64.30;100122.25;5058310;27;96894;-82
2021/01/20 01:48:15;;;;;;;;;;;;;;;9.16;64.66;100119.06;5057024;27;100181;-81
2021/01/20 01:50:41;;;;;;;;;;;;;;;9.07;64.71;100119.44;5056985;27;100444;-82
2021/01/20 01:53:08;;;;;;;;;;;;;;;9.43;63.21;100119.75;5054399;27;97015;-81
2021/01/20 01:55:35;;;;;;;;;;;;;;;9.16;64.62;100126.97;5058910;27;96838;-81
2021/01/20 01:58:01;;;;;;;;;;;;;;;9.02;64.43;100125.81;5053297;27;99328;-82
2021/01/20 02:00:28;;;;;;;;;;;;;;;9.32;63.43;100116.66;5060130;27;99888;-82
2021/01/20 02:02:54;;;;;;;;;;;;;;;9.16;64.23;100121.72;5058973;27;97415;-81
2021/01/20 02:05:19;;;;;;;;;;;;;;;9.33;63.26;100128.06;5051740;27;96889;-81
2021/01/20 02:07:46;;;;;;;;;;;;;;;9.25;63.66;100123.13;5052621;27;100394;-81
2021/01/20 02:10:12;;;;;;;;;;;;;;;9.27;63.71;100128.31;5054790;27;100793;-82
2021/01/20 02:13:03;;;;;;;;;;;;;;;9.48;63.24;100119.56;5065485;27;96898;-80
2021/01/20 02:15:34;;;;;;;;;;;;;;;9.41;62.35;100126.00;5054324;27;96820;-82
2021/01/20 02:18:02;;;;;;;;;;;;;;;9.34;63.11;100128.03;5067593;27;99656;-82
2021/01/20 02:20:45;;;;;;;;;;;;;;;9.69;62.06;100129.22;5060946;27;101964;-82
2021/01/20 02:23:15;;;;;;;;;;;;;;;9.31;62.84;100135.22;5067094;27;97300;-81
2021/01/20 02:26:02;;;;;;;;;;;;;;;9.51;62.81;100136.13;5061445;27;96846;-82
2021/01/20 02:28:37;;;;;;;;;;;;;;;9.32;62.96;100142.19;5070886;27;99438;-81
2021/01/20 02:31:04;;;;;;;;;;;;;;;9.58;62.31;100132.28;5058488;27;102045;-81
2021/01/20 02:33:31;;;;;;;;;;;;;;;9.50;62.29;100121.22;5047134;27;96836;-80
2021/01/20 02:35:58;;;;;;;;;;;;;;;9.46;62.23;100126.66;5055281;27;96884;-81
2021/01/20 02:38:25;;;;;;;;;;;;;;;9.54;61.67;100132.50;5057816;27;100707;-80
2021/01/20 02:40:51;;;;;;;;;;;;;;;9.51;62.11;100136.13;5058410;27;98136;-81
2021/01/20 02:43:21;;;;;;;;;;;;;;;9.52;61.82;100139.59;5056999;27;97052;-81
2021/01/20 02:45:47;;;;;;;;;;;;;;;9.59;61.67;100133.16;5073605;27;96731;-81
2021/01/20 02:48:13;;;;;;;;;;;;;;;9.61;61.44;100136.59;5075310;27;101241;-81
2021/01/20 02:50:39;;;;;;;;;;;;;;;9.44;61.91;100139.06;5076652;27;96665;-81
2021/01/20 02:53:09;;;;;;;;;;;;;;;9.24;62.71;100144.28;5049935;27;96865;-81
2021/01/20 02:55:35;;;;;;;;;;;;;;;9.18;62.70;100138.34;5066126;27;96664;-81
2021/01/20 02:58:02;;;;;;;;;;;;;;;9.12;62.88;100143.00;5063231;27;98225;-81
2021/01/20 03:00:30;;;;;;;;;;;;;;;9.33;62.21;100143.91;5058837;27;98341;-81
2021/01/20 03:02:57;;;;;;;;;;;;;;;9.08;62.93;100146.66;5054159;27;96947;-81
2021/01/20 03:05:24;;;;;;;;;;;;;;;9.14;63.04;100139.34;5057130;27;96817;-80
2021/01/20 03:07:50;;;;;;;;;;;;;;;9.51;61.59;100146.69;5047932;27;98925;-81
2021/01/20 03:10:17;;;;;;;;;;;;;;;9.39;62.06;100141.00;5057779;27;101568;-82
2021/01/20 03:12:43;;;;;;;;;;;;;;;9.47;61.56;100139.78;5054838;27;97018;-81
2021/01/20 03:15:12;;;;;;;;;;;;;;;9.14;62.21;100149.03;5053410;27;97325;-81
2021/01/20 03:17:38;;;;;;;;;;;;;;;9.59;61.41;100154.25;5052848;27;99227;-81
2021/01/20 03:20:04;;;;;;;;;;;;;;;9.55;61.11;100148.25;5053155;27;101082;-80
2021/01/20 03:22:31;;;;;;;;;;;;;;;9.16;61.86;100149.84;5055227;27;96652;-80
2021/01/20 03:24:57;;;;;;;;;;;;;;;9.31;61.74;100141.34;5048997;27;96912;-81
2021/01/20 03:27:23;;;;;;;;;;;;;;;9.30;61.49;100139.63;5055634;27;101258;-80
2021/01/20 03:29:49;;;;;;;;;;;;;;;9.40;61.09;100143.59;5052129;27;99857;-81
2021/01/20 03:32:15;;;;;;;;;;;;;;;9.54;60.70;100133.34;5043029;27;96708;-81
2021/01/20 03:34:40;;;;;;;;;;;;;;;9.58;60.02;100119.09;5060745;27;96955;-81
2021/01/20 03:37:06;;;;;;;;;;;;;;;9.36;60.40;100133.25;5056426;27;99298;-81
2021/01/20 03:39:33;;;;;;;;;;;;;;;9.06;61.43;100122.09;5056384;27;101542;-82
2021/01/20 03:41:59;;;;;;;;;;;;;;;9.16;61.19;100121.72;5053414;27;97038;-81
2021/01/20 03:44:25;;;;;;;;;;;;;;;9.07;61.19;100124.69;5058241;27;96945;-81
2021/01/20 03:46:51;;;;;;;;;;;;;;;9.09;61.02;100125.50;5057680;27;102088;-81
2021/01/20 03:49:17;;;;;;;;;;;;;;;9.05;61.38;100116.00;5059075;27;96620;-81
2021/01/20 03:51:45;;;;;;;;;;;;;;;9.10;61.11;100111.41;5060925;27;96842;-81
2021/01/20 03:54:11;;;;;;;;;;;;;;;9.04;60.94;100119.56;5057279;27;97029;-81
2021/01/20 03:56:37;;;;;;;;;;;;;;;9.11;60.61;100110.50;5077702;27;99305;-81
2021/01/20 03:59:03;;;;;;;;;;;;;;;9.03;60.90;100111.72;5071628;27;99863;-82
2021/01/20 04:01:29;;;;;;;;;;;;;;;8.87;61.12;100119.34;5058695;27;97028;-82
2021/01/20 04:03:55;;;;;;;;;;;;;;;8.95;61.07;100109.38;5059924;27;96914;-82
2021/01/20 04:06:22;;;;;;;;;;;;;;;9.23;59.81;100097.75;5066589;27;100709;-81
2021/01/20 04:08:49;;;;;;;;;;;;;;;9.34;59.45;100095.53;5076302;27;96903;-81
2021/01/20 04:11:18;;;;;;;;;;;;;;;9.01;59.97;100093.31;5076816;27;96914;-81
2021/01/20 04:13:45;;;;;;;;;;;;;;;9.01;60.26;100095.94;5074502;27;96670;-82
2021/01/20 04:16:11;;;;;;;;;;;;;;;9.04;59.69;100087.94;5072144;27;98072;-81
2021/01/20 04:18:37;;;;;;;;;;;;;;;9.16;59.17;100087.44;5075429;27;99575;-81
2021/01/20 04:21:03;;;;;;;;;;;;;;;9.24;58.91;100086.28;5070155;27;95944;-82
2021/01/20 04:23:29;;;;;;;;;;;;;;;9.16;59.00;100084.81;5064725;27;95989;-81
2021/01/20 04:25:55;;;;;;;;;;;;;;;8.75;59.42;100082.94;5072888;27;97859;-82
2021/01/20 04:28:22;;;;;;;;;;;;;;;9.13;58.55;100087.56;5067588;27;98313;-82
2021/01/20 04:30:49;;;;;;;;;;;;;;;9.12;58.55;100083.19;5058251;27;96659;-81
2021/01/20 04:33:15;;;;;;;;;;;;;;;9.08;58.38;100080.75;5059252;27;96673;-82
2021/01/20 04:35:44;;;;;;;;;;;;;;;9.20;57.85;100081.13;5058968;27;99552;-82
2021/01/20 04:38:10;;;;;;;;;;;;;;;9.00;58.41;100080.19;5060093;27;99960;-82
2021/01/20 04:40:36;;;;;;;;;;;;;;;8.69;58.43;100075.25;5056346;27;96795;-82
2021/01/20 04:43:02;;;;;;;;;;;;;;;8.67;58.78;100071.81;5059850;27;96748;-82
2021/01/20 04:45:28;;;;;;;;;;;;;;;8.96;58.04;100068.94;5058307;27;101271;-81
2021/01/20 04:47:56;;;;;;;;;;;;;;;8.78;57.87;100061.75;5054219;27;97808;-81
2021/01/20 04:50:23;;;;;;;;;;;;;;;8.78;58.16;100053.84;5058150;27;96897;-82
2021/01/20 04:52:54;;;;;;;;;;;;;;;8.80;57.39;100052.84;5052062;27;96839;-82
2021/01/20 04:55:20;;;;;;;;;;;;;;;9.08;56.79;100060.53;5046374;28;99662;-84
2021/01/20 04:57:46;;;;;;;;;;;;;;;8.87;57.53;100056.09;5047902;28;98992;-84
2021/01/20 05:00:12;;;;;;;;;;;;;;;8.78;57.55;100056.47;5055415;27;96944;-83
2021/01/20 05:02:41;;;;;;;;;;;;;;;8.79;57.15;100055.56;5063811;27;96928;-84
2021/01/20 05:07:53;;;;;;;;;;;;;;;8.99;56.43;100058.25;5046521;27;100566;-83
2021/01/20 05:10:20;;;;;;;;;;;;;;;8.75;56.90;100059.22;5060754;27;96862;-84
2021/01/20 05:12:45;;;;;;;;;;;;;;;8.96;56.44;100055.75;5062235;27;96953;-84
2021/01/20 05:15:16;;;;;;;;;;;;;;;9.22;55.84;100059.97;5061417;27;96784;-84
2021/01/20 05:17:57;;;;;;;;;;;;;;;9.04;55.69;100056.31;5064696;27;96798;-83
2021/01/20 05:20:33;;;;;;;;;;;;;;;9.00;55.76;100046.78;5052393;27;96826;-81
2021/01/20 05:23:00;;;;;;;;;;;;;;;9.02;55.99;100050.25;5046634;27;97116;-83
2021/01/20 05:25:28;;;;;;;;;;;;;;;9.09;55.79;100043.81;5048111;27;96954;-82
2021/01/20 05:27:55;;;;;;;;;;;;;;;9.05;56.07;100041.38;5044601;22;98294;-82
2021/01/20 05:30:21;;;;;;;;;;;;;;;8.96;55.95;100041.72;5020400;28;96943;-82
2021/01/20 05:32:53;;;;;;;;;;;;;;;9.08;55.61;100035.94;5017197;28;97388;-81
2021/01/20 05:35:22;;;;;;;;;;;;;;;8.86;55.82;100041.22;5021744;28;99219;-83
2021/01/20 05:37:51;;;;;;;;;;;;;;;8.97;56.05;100041.66;5022939;28;98379;-83
2021/01/20 05:40:17;;;;;;;;;;;;;;;9.20;55.49;100041.56;5015105;28;96805;-82
2021/01/20 05:42:45;;;;;;;;;;;;;;;9.02;55.87;100034.44;5005008;28;96834;-82
2021/01/20 05:45:12;;;;;;;;;;;;;;;8.88;55.88;100028.84;5016576;28;102159;-82
2021/01/20 05:47:38;;;;;;;;;;;;;;;9.11;56.11;100036.69;5018365;28;100122;-82
2021/01/20 05:50:04;;;;;;;;;;;;;;;8.88;56.05;100044.66;5012865;28;97041;-81
2021/01/20 05:52:30;;;;;;;;;;;;;;;9.00;55.84;100038.88;5010509;28;96873;-81
2021/01/20 05:54:57;;;;;;;;;;;;;;;8.62;56.84;100044.81;5013191;28;99623;-82
2021/01/20 05:57:28;;;;;;;;;;;;;;;8.64;56.65;100043.84;5013823;28;99267;-81
2021/01/20 05:59:54;;;;;;;;;;;;;;;8.57;56.96;100054.66;5015270;28;96757;-81
2021/01/20 06:02:20;;;;;;;;;;;;;;;8.64;57.00;100054.38;5018041;28;97170;-81
2021/01/20 06:04:46;;;;;;;;;;;;;;;8.41;57.62;100054.38;5017805;28;101178;-81
2021/01/20 06:07:12;;;;;;;;;;;;;;;8.65;56.77;100049.97;5010316;28;101996;-82
2021/01/20 06:09:39;;;;;;;;;;;;;;;8.66;56.73;100057.78;5016986;28;97045;-81
2021/01/20 06:12:06;;;;;;;;;;;;;;;8.57;56.84;100058.16;5015867;28;96960;-81
2021/01/20 06:14:38;;;;;;;;;;;;;;;8.35;57.47;100057.25;5021494;28;101709;-79
2021/01/20 06:17:10;;;;;;;;;;;;;;;8.64;56.94;100048.25;5018013;28;96777;-80
2021/01/20 06:19:38;;;;;;;;;;;;;;;8.64;56.62;100053.53;5017813;28;96965;-82
2021/01/20 06:22:04;;;;;;;;;;;;;;;8.68;56.88;100050.69;5009701;28;97689;-81
2021/01/20 06:24:33;;;;;;;;;;;;;;;8.79;56.10;100050.31;5014386;28;97163;-82
2021/01/20 06:27:01;;;;;;;;;;;;;;;8.91;55.86;100048.94;5012641;28;97835;-82
2021/01/20 06:29:29;;;;;;;;;;;;;;;9.04;55.32;100047.53;5010305;28;98021;-82
2021/01/20 06:31:57;;;;;;;;;;;;;;;8.79;55.27;100045.03;5002822;28;96996;-83
2021/01/20 06:34:23;;;;;;;;;;;;;;;8.81;55.69;100053.72;4990559;28;99458;-81
2021/01/20 06:36:49;;;;;;;;;;;;;;;8.85;55.28;100043.94;4993777;28;99008;-82
2021/01/20 06:39:32;;;;;;;;;;;;;;;8.84;55.78;100043.06;4997614;28;96901;-81
2021/01/20 06:41:58;;;;;;;;;;;;;;;8.79;55.62;100047.66;4993304;28;96888;-82
2021/01/20 06:44:24;;;;;;;;;;;;;;;8.78;55.52;100048.59;4994203;28;97868;-82
2021/01/20 06:46:59;;;;;;;;;;;;;;;8.62;55.44;100056.22;4993333;28;102030;-80
2021/01/20 06:49:26;;;;;;;;;;;;;;;8.61;56.04;100053.63;5000693;28;96847;-81
2021/01/20 06:52:08;;;;;;;;;;;;;;;8.62;56.04;100055.34;4993578;28;97078;-83
2021/01/20 06:54:35;;;;;;;;;;;;;;;8.51;55.91;100049.63;4994768;28;99086;-80
2021/01/20 06:57:04;;;;;;;;;;;;;;;8.71;55.31;100052.38;5001231;28;101324;-81
2021/01/20 06:59:30;;;;;;;;;;;;;;;8.61;55.21;100057.13;4987727;28;97119;-82
2021/01/20 07:02:14;;;;;;;;;;;;;;;8.65;55.61;100055.25;4991872;28;96892;-82
2021/01/20 07:05:04;;;;;;;;;;;;;;;8.75;55.12;100048.69;4998631;28;99892;-81
2021/01/20 07:07:52;;;;;;;;;;;;;;;8.71;54.56;100042.69;4991840;28;101150;-81
2021/01/20 07:10:19;;;;;;;;;;;;;;;8.74;54.99;100044.34;4992426;28;97084;-83
2021/01/20 07:13:03;;;;;;;;;;;;;;;8.76;54.84;100051.28;4993211;28;96950;-83
2021/01/20 07:15:29;;;;;;;;;;;;;;;8.78;54.29;100048.59;4988728;28;99460;-81
2021/01/20 07:17:56;;;;;;;;;;;;;;;8.75;54.45;100053.94;4993947;28;98593;-81
2021/01/20 07:20:24;;;;;;;;;;;;;;;9.03;53.79;100043.19;5002819;28;96749;-85
2021/01/20 07:22:50;;;;;;;;;;;;;;;9.04;53.63;100045.78;4999381;28;96968;-83
2021/01/20 07:25:17;;;;;;;;;;;;;;;9.28;53.20;100049.19;4996304;28;100646;-85
2021/01/20 07:27:50;;;;;;;;;;;;;;;9.25;52.97;100043.19;5021118;28;101667;-85
2021/01/20 07:30:16;;;;;;;;;;;;;;;9.32;53.05;100039.38;5031528;28;97303;-82
2021/01/20 07:32:42;;;;;;;;;;;;;;;9.33;53.19;100044.56;5033377;28;98598;-83
2021/01/20 07:35:19;;;;;;;;;;;;;;;9.34;52.67;100043.66;5028740;28;97634;-84
2021/01/20 07:37:46;;;;;;;;;;;;;;;9.06;52.96;100043.91;5026141;28;100416;-82
2021/01/20 07:40:13;;;;;;;;;;;;;;;9.45;52.27;100053.78;5027500;28;97413;-82
2021/01/20 07:42:39;;;;;;;;;;;;;;;9.64;51.53;100051.22;5020613;28;96986;-82
2021/01/20 07:45:06;;;;;;;;;;;;;;;9.37;52.23;100043.53;5013054;28;99957;-82
2021/01/20 07:47:43;;;;;;;;;;;;;;;9.14;52.80;100054.16;5023211;28;99431;-81
2021/01/20 07:50:10;;;;;;;;;;;;;;;9.62;51.71;100046.00;5014591;28;97363;-82
2021/01/20 07:52:38;;;;;;;;;;;;;;;9.59;52.17;100052.25;5018590;28;99229;-82
2021/01/20 07:55:05;;;;;;;;;;;;;;;9.29;52.34;100050.91;5018146;28;97373;-82
2021/01/20 07:57:31;;;;;;;;;;;;;;;9.28;52.42;100062.34;5016265;28;101451;-82
2021/01/20 07:59:58;;;;;;;;;;;;;;;9.63;51.83;100060.91;5016631;28;96869;-82
2021/01/20 08:02:24;;;;;;;;;;;;;;;9.66;51.82;100050.19;5016454;28;97329;-82
2021/01/20 08:04:58;;;;;;;;;;;;;;;9.56;52.08;100054.16;5015910;28;96940;-82
2021/01/20 08:10:27;;;;;;;;;;;;;;;9.62;50.89;100050.41;5020950;28;99115;-82
2021/01/20 08:12:53;;;;;;;;;;;;;;;9.76;51.46;100045.41;5018801;28;97320;-81
2021/01/20 08:15:20;;;;;;;;;;;;;;;9.79;51.13;100051.38;5025032;28;98614;-82
2021/01/20 08:17:46;;;;;;;;;;;;;;;9.89;50.92;100052.72;5015292;28;99185;-82
2021/01/20 08:20:12;;;;;;;;;;;;;;;10.27;49.89;100053.69;5026384;28;97230;-81
2021/01/20 08:22:39;;;;;;;;;;;;;;;10.29;49.74;100048.34;5000557;28;97088;-81
2021/01/20 08:25:08;;;;;;;;;;;;;;;10.34;49.09;100038.44;5016591;27;98702;-81
2021/01/20 08:27:37;;;;;;;;;;;;;;;10.42;48.65;100046.88;5019091;28;102168;-81
2021/01/20 08:30:05;;;;;;;;;;;;;;;10.30;49.84;100047.44;5022811;28;97068;-81
2021/01/20 08:32:31;;;;;;;;;;;;;;;10.05;50.06;100044.09;5021638;28;97566;-81
2021/01/20 08:34:59;;;;;;;;;;;;;;;10.14;49.66;100046.34;5017416;28;99296;-80
2021/01/20 08:37:33;;;;;;;;;;;;;;;10.03;49.76;100030.16;5013829;28;101992;-81
2021/01/20 08:39:59;;;;;;;;;;;;;;;10.16;49.49;100036.59;5017524;28;97278;-80
2021/01/20 08:42:28;;;;;;;;;;;;;;;10.29;49.79;100036.00;5018466;28;97491;-81
2021/01/20 08:45:03;;;;;;;;;;;;;;;10.12;50.06;100042.91;5022911;28;102327;-81
2021/01/20 08:47:29;;;;;;;;;;;;;;;10.31;49.22;100042.03;5015801;28;102573;-82
2021/01/20 08:50:13;;;;;;;;;;;;;;;10.20;49.19;100046.09;5023187;28;98348;-82
2021/01/20 08:52:59;;;;;;;;;;;;;;;10.11;49.52;100036.78;4983953;28;99304;-80
2021/01/20 08:55:26;;;;;;;;;;;;;;;10.28;49.06;100041.34;5018733;28;98387;-81
2021/01/20 08:58:11;;;;;;;;;;;;;;;10.54;48.58;100038.38;4992374;28;98577;-81
2021/01/20 09:00:42;;;;;;;;;;;;;;;10.66;48.47;100034.28;5008622;28;96946;-81
2021/01/20 09:03:12;;;;;;;;;;;;;;;10.72;47.74;100026.94;5025880;28;97007;-83
2021/01/20 09:05:37;;;;;;;;;;;;;;;10.58;48.18;100026.72;5023089;28;99806;-82
2021/01/20 09:08:04;;;;;;;;;;;;;;;10.66;48.17;100018.44;5026428;28;98138;-82
2021/01/20 09:10:30;;;;;;;;;;;;;;;10.51;48.19;100020.00;5020650;28;97013;-81
2021/01/20 09:12:57;;;;;;;;;;;;;;;10.51;48.15;100017.38;5028810;28;96967;-83
2021/01/20 09:15:26;;;;;;;;;;;;;;;10.54;48.03;100013.72;5024917;28;98146;-82
2021/01/20 09:17:53;;;;;;;;;;;;;;;10.74;47.88;100017.16;5032584;28;99137;-84
2021/01/20 09:20:22;;;;;;;;;;;;;;;10.79;47.48;100023.06;5036764;28;97030;-83
2021/01/20 09:23:02;;;;;;;;;;;;;;;10.82;47.66;100021.22;5010236;28;97863;-83
2021/01/20 09:25:29;;;;;;;;;;;;;;;10.81;47.17;100016.84;5034000;28;98425;-82
2021/01/20 09:28:03;;;;;;;;;;;;;;;10.78;47.97;100017.84;5032406;28;99414;-84
2021/01/20 09:30:33;;;;;;;;;;;;;;;10.94;47.34;100020.63;5016637;28;96897;-82
2021/01/20 09:33:04;;;;;;;;;;;;;;;10.68;47.60;100013.94;5032780;28;96883;-83
2021/01/20 09:35:31;;;;;;;;;;;;;;;10.64;47.71;100026.44;5033795;28;100811;-84
2021/01/20 09:38:09;;;;;;;;;;;;;;;10.21;48.22;100017.00;5035654;28;98182;-83
2021/01/20 09:40:40;;;;;;;;;;;;;;;10.61;47.89;100020.44;5035828;28;96963;-83
2021/01/20 09:43:11;;;;;;;;;;;;;;;10.65;47.51;100007.00;5039055;28;96790;-83
2021/01/20 09:45:40;;;;;;;;;;;;;;;10.52;48.27;100002.38;5042000;28;98604;-82
2021/01/20 09:48:12;;;;;;;;;;;;;;;10.90;47.14;100006.69;5037764;28;100469;-83
2021/01/20 09:50:44;;;;;;;;;;;;;;;10.91;47.19;99996.97;5016513;28;98362;-83
2021/01/20 09:53:18;;;;;;;;;;;;;;;11.19;46.26;100011.41;5034042;28;96957;-83
2021/01/20 09:55:44;;;;;;;;;;;;;;;11.39;45.52;100007.78;5039040;28;99612;-82
2021/01/20 09:58:17;;;;;;;;;;;;;;;11.38;45.51;99997.25;5029396;28;101111;-84
2021/01/20 10:03:48;;;;;;;;;;;;;;;11.34;45.51;99996.59;5042494;27;96845;-82
2021/01/20 10:06:17;;;;;;;;;;;;;;;11.50;45.25;99994.84;5037244;28;100135;-82
2021/01/20 10:08:44;;;;;;;;;;;;;;;11.04;46.23;99990.16;5040158;27;99641;-83
2021/01/20 10:11:17;;;;;;;;;;;;;;;11.16;45.84;99992.19;5039841;27;97218;-84
2021/01/20 10:13:43;;;;;;;;;;;;;;;11.46;45.38;99990.66;5045541;27;97630;-83
2021/01/20 10:16:23;;;;;;;;;;;;;;;11.35;45.79;99984.22;5044677;27;100455;-83
2021/01/20 10:18:53;;;;;;;;;;;;;;;11.29;45.35;99974.78;5011445;27;98166;-83
2021/01/20 10:21:20;;;;;;;;;;;;;;;11.37;45.57;99962.03;5038193;27;96717;-82
2021/01/20 10:23:48;;;;;;;;;;;;;;;11.10;45.88;99960.75;5029972;28;96997;-83
2021/01/20 10:26:38;;;;;;;;;;;;;;;11.53;45.33;99960.31;5044791;28;97895;-83
2021/01/20 10:29:09;;;;;;;;;;;;;;;11.53;45.03;99956.81;5037309;28;96852;-84
2021/01/20 10:34:24;;;;;;;;;;;;;;;11.60;44.76;99950.25;5026591;28;97083;-83
2021/01/20 10:37:09;;;;;;;;;;;;;;;11.02;45.73;99947.09;5022296;28;101208;-83
2021/01/20 10:39:38;;;;;;;;;;;;;;;11.23;45.27;99943.34;5034479;28;101661;-86
2021/01/20 10:42:04;;;;;;;;;;;;;;;11.70;44.72;99945.34;5003829;28;97606;-85
2021/01/20 10:47:28;;;;;;;;;;;;;;;11.69;44.12;99943.63;5033674;28;97648;-84
2021/01/20 10:49:54;;;;;;;;;;;;;;;11.88;43.51;99941.78;5009842;28;97805;-84
2021/01/20 10:52:25;;;;;;;;;;;;;;;11.90;43.62;99932.78;5010784;28;97910;-82
2021/01/20 10:54:56;;;;;;;;;;;;;;;11.77;43.60;99946.75;5026805;28;97122;-84
2021/01/20 10:57:23;;;;;;;;;;;;;;;11.54;43.42;99948.81;5028149;28;101770;-81
2021/01/20 10:59:49;;;;;;;;;;;;;;;11.92;43.08;99946.81;5030189;28;99091;-84
2021/01/20 11:02:18;;;;;;;;;;;;;;;11.86;43.30;99956.88;5031603;28;97407;-82
2021/01/20 11:04:55;;;;;;;;;;;;;;;12.33;42.49;99949.84;5036198;28;97176;-81
2021/01/20 11:07:23;;;;;;;;;;;;;;;12.38;41.95;99952.25;5034615;28;99078;-83
2021/01/20 11:09:51;;;;;;;;;;;;;;;12.28;42.08;99948.38;5034913;28;99615;-84
2021/01/20 11:17:31;;;;;;;;;;;;;;;12.48;41.38;99929.59;5011201;28;99627;-81
2021/01/20 11:20:04;;;;;;;;;;;;;;;12.66;41.21;99933.00;5027292;28;97934;-84
2021/01/20 11:22:51;;;;;;;;;;;;;;;12.50;41.72;99942.75;5028225;28;97347;-83
2021/01/20 11:25:18;;;;;;;;;;;;;;;12.52;41.91;99940.88;5031171;28;96835;-81
2021/01/20 11:27:45;;;;;;;;;;;;;;;12.46;42.45;99936.78;5010744;28;99155;-80
2021/01/20 11:30:12;;;;;;;;;;;;;;;12.37;42.01;99943.44;5019958;28;100381;-83
2021/01/20 11:32:38;;;;;;;;;;;;;;;12.56;42.10;99931.81;5014882;28;96794;-83
2021/01/20 11:35:04;;;;;;;;;;;;;;;12.97;41.47;99935.59;5023432;28;99315;-83
2021/01/20 11:37:31;;;;;;;;;;;;;;;12.88;41.47;99928.16;5000487;28;98353;-81
2021/01/20 11:40:01;;;;;;;;;;;;;;;12.80;41.91;99921.63;4985089;28;97746;-81
2021/01/20 11:42:28;;;;;;;;;;;;;;;12.43;42.26;99928.13;5007658;28;97079;-80
2021/01/20 11:44:54;;;;;;;;;;;;;;;12.45;42.17;99931.56;5001630;28;97872;-82
2021/01/20 11:47:20;;;;;;;;;;;;;;;12.62;41.91;99920.84;5011616;28;100546;-82
2021/01/20 11:49:46;;;;;;;;;;;;;;;12.41;42.36;99916.75;5012036;28;99251;-82
2021/01/20 11:52:12;;;;;;;;;;;;;;;12.57;42.14;99913.19;5013057;28;97503;-81
2021/01/20 11:54:38;;;;;;;;;;;;;;;12.72;42.82;99909.66;5012028;28;99254;-82
2021/01/20 11:57:04;;;;;;;;;;;;;;;12.66;42.35;99909.16;5008937;28;98202;-82
2021/01/20 11:59:31;;;;;;;;;;;;;;;12.45;42.75;99919.16;5007225;28;99215;-82
2021/01/20 12:01:57;;;;;;;;;;;;;;;12.77;42.24;99912.03;5004174;28;96892;-81
2021/01/20 12:04:23;;;;;;;;;;;;;;;13.10;41.78;99917.19;4989259;28;97235;-80
2021/01/20 12:06:51;;;;;;;;;;;;;;;12.92;42.46;99905.00;5017509;28;101016;-84
2021/01/20 12:09:19;;;;;;;;;;;;;;;13.04;41.88;99906.94;5014983;28;98869;-82
2021/01/20 12:11:46;;;;;;;;;;;;;;;13.08;41.71;99905.78;5005777;28;98998;-83
2021/01/20 12:14:13;;;;;;;;;;;;;;;13.12;41.31;99897.63;5002791;28;96930;-81
2021/01/20 12:16:40;;;;;;;;;;;;;;;13.16;41.00;99907.09;5003252;28;101326;-81
2021/01/20 12:19:06;;;;;;;;;;;;;;;13.22;40.83;99891.75;5002389;28;98618;-81
2021/01/20 12:21:32;;;;;;;;;;;;;;;12.84;41.25;99876.28;4999338;28;97394;-81
2021/01/20 12:24:03;;;;;;;;;;;;;;;12.95;40.67;99881.78;5007379;28;99806;-82
2021/01/20 12:26:29;;;;;;;;;;;;;;;12.99;41.07;99879.84;5017033;28;99453;-82
2021/01/20 12:28:56;;;;;;;;;;;;;;;12.96;40.81;99874.69;5014543;28;100040;-83
2021/01/20 12:31:21;;;;;;;;;;;;;;;12.70;41.54;99873.56;5014519;28;98069;-82
2021/01/20 12:33:48;;;;;;;;;;;;;;;13.04;40.88;99873.31;5008281;28;97336;-84
2021/01/20 12:36:14;;;;;;;;;;;;;;;13.10;40.15;99878.25;5006364;28;99819;-84
2021/01/20 12:38:41;;;;;;;;;;;;;;;12.89;41.40;99871.56;5008280;28;100484;-85
2021/01/20 12:41:07;;;;;;;;;;;;;;;12.56;41.29;99878.81;4992116;28;98354;-82
2021/01/20 12:43:33;;;;;;;;;;;;;;;12.88;41.17;99880.44;5010151;28;97675;-83
2021/01/20 12:46:00;;;;;;;;;;;;;;;13.23;40.27;99866.94;5011107;28;101876;-82
2021/01/20 12:48:26;;;;;;;;;;;;;;;12.71;41.35;99873.50;5013840;28;99471;-84
2021/01/20 12:50:54;;;;;;;;;;;;;;;12.99;40.54;99871.88;5020033;28;96924;-84
2021/01/20 12:53:20;;;;;;;;;;;;;;;13.38;39.68;99858.06;5018772;28;97043;-83
2021/01/20 12:55:46;;;;;;;;;;;;;;;12.63;41.32;99856.31;5021720;28;99884;-83
2021/01/20 12:58:14;;;;;;;;;;;;;;;12.88;40.83;99853.06;5027901;28;98219;-84
2021/01/20 13:00:41;;;;;;;;;;;;;;;13.20;39.63;99849.38;5029929;28;96919;-83
2021/01/20 13:03:08;;;;;;;;;;;;;;;12.69;40.96;99854.16;5022651;28;97976;-83
2021/01/20 13:05:36;;;;;;;;;;;;;;;13.13;40.15;99856.84;5028705;28;96870;-82
2021/01/20 13:08:03;;;;;;;;;;;;;;;12.61;41.44;99850.22;5024113;28;100484;-82